TimeEDT,TemperatureF,Dew PointF,Humidity,Sea Level PressureIn,VisibilityMPH,Wind Direction,Wind SpeedMPH,Gust SpeedMPH,PrecipitationIn,Events,Conditions,WindDirDegrees,DateUTC
12:52 AM,48.0,46.0,93,29.97,10.0,Calm,Calm,-,N/A,,Clear,0,2013-06-16 04:52:00
1:52 AM,46.9,45.0,93,29.98,10.0,Calm,Calm,-,N/A,,Clear,0,2013-06-16 05:52:00
2:52 AM,48.0,45.0,89,29.97,10.0,Calm,Calm,-,N/A,,Clear,0,2013-06-16 06:52:00
3:52 AM,46.9,45.0,93,29.97,9.0,Calm,Calm,-,N/A,,Clear,0,2013-06-16 07:52:00
4:52 AM,46.9,45.0,93,29.96,8.0,Calm,Calm,-,N/A,,Clear,0,2013-06-16 08:52:00
5:52 AM,48.0,46.0,93,29.96,9.0,Calm,Calm,-,N/A,,Clear,0,2013-06-16 09:52:00
6:52 AM,50.0,48.0,93,29.97,10.0,Calm,Calm,-,N/A,,Clear,0,2013-06-16 10:52:00
7:52 AM,54.0,50.0,86,29.95,10.0,Calm,Calm,-,N/A,,Scattered Clouds,0,2013-06-16 11:52:00
8:52 AM,61.0,46.9,60,29.94,10.0,ESE,8.1,-,N/A,,Partly Cloudy,110,2013-06-16 12:52:00
9:52 AM,66.0,48.0,52,29.91,10.0,ESE,8.1,-,N/A,,Clear,110,2013-06-16 13:52:00
10:15 AM,66.2,46.4,49,29.90,10.0,East,6.9,-,N/A,,Partly Cloudy,100,2013-06-16 14:15:00
10:52 AM,68.0,48.9,50,29.88,10.0,ESE,5.8,-,N/A,,Partly Cloudy,110,2013-06-16 14:52:00
11:52 AM,70.0,50.0,49,29.86,10.0,Variable,4.6,-,N/A,,Clear,0,2013-06-16 15:52:00
12:52 PM,72.0,48.9,44,29.83,10.0,Variable,3.5,-,N/A,,Scattered Clouds,0,2013-06-16 16:52:00
1:52 PM,71.1,46.9,42,29.80,10.0,SSW,11.5,18.4,N/A,,Mostly Cloudy,210,2013-06-16 17:52:00
2:52 PM,71.1,46.0,41,29.76,10.0,Variable,5.8,25.3,0.00,,Overcast,0,2013-06-16 18:52:00
3:52 PM,69.1,48.9,49,29.75,10.0,Calm,Calm,-,0.00,Rain,Light Rain,0,2013-06-16 19:52:00
4:52 PM,70.0,51.1,51,29.73,10.0,Variable,4.6,-,0.00,,Overcast,0,2013-06-16 20:52:00
5:52 PM,69.1,53.1,57,29.72,10.0,NW,4.6,-,N/A,,Overcast,320,2013-06-16 21:52:00
6:52 PM,68.0,54.0,61,29.73,10.0,Calm,Calm,-,N/A,,Overcast,0,2013-06-16 22:52:00
7:52 PM,69.1,55.0,61,29.75,10.0,Variable,3.5,-,N/A,,Overcast,0,2013-06-16 23:52:00
7:59 PM,69.8,55.4,60,29.76,10.0,West,4.6,-,N/A,,Overcast,280,2013-06-16 23:59:00
8:52 PM,68.0,55.0,63,29.79,10.0,WNW,8.1,20.7,N/A,,Overcast,290,2013-06-17 00:52:00
9:52 PM,66.9,55.0,66,29.82,10.0,West,8.1,-,N/A,,Overcast,260,2013-06-17 01:52:00
10:39 PM,66.2,55.4,68,29.83,10.0,WSW,9.2,-,N/A,,Overcast,250,2013-06-17 02:39:00
10:52 PM,64.9,55.0,70,29.83,10.0,West,5.8,-,N/A,,Overcast,260,2013-06-17 02:52:00
11:52 PM,64.0,54.0,70,29.83,10.0,West,5.8,-,N/A,,Overcast,270,2013-06-17 03:52:00